KMMT/MMT METAR and TAF weather

Enter ICAO airport designator
Station Type Date Time Source
KMMT METAR 2020/09/21 04:56 UTC NOAA

KMMT 210456Z AUTO 04008KT 10SM CLR M M RMK AO2 SLPNO 402070132 $


Station Type Date Time Source
KMMT Decoded METAR 2020/09/21 04:56 UTC NOAA

McEntire Air National Guard Weather Facility Base, SC, United States (KMMT) 33-55N 080-48W
Sep 21, 2020 - 12:56 AM EDT / 2020.09.21 0456 UTC
Wind: from the NE (040 degrees) at 9 MPH (8 KT):0
Visibility: 10 mile(s):0
Sky conditions: clear
ob: KMMT 210456Z AUTO 04008KT 10SM CLR M M RMK AO2 SLPNO 402070132
cycle: 5

Station Type Date Time Source
KMMT TAF 2020/09/20 23:09 UTC NOAA

TAF TAF KMMT 202300Z 2023/2205 05012G18KT 9999 SCT050 SCT200 QNH3025INS
BECMG 2102/2103 05009KT 9999 SCT030 SCT200 QNH3020INS
BECMG 2117/2118 06012G18KT 9999 SKC QNH3029INS
BECMG 2123/2124 05006KT 9999 FEW030 QNH3030INS TX21/2120Z TN12/2111Z

Example: see airport list